sensor_id;sensor_type;location;lat;lon;timestamp;P1;durP1;ratioP1;P2;durP2;ratioP2
74974;SDS011;64061;50.836;19.138;2022-10-10T00:01:40;3.28;;;0.90;;
74974;SDS011;64061;50.836;19.138;2022-10-10T00:04:45;1.53;;;0.77;;
74974;SDS011;64061;50.836;19.138;2022-10-10T00:07:48;1.88;;;1.05;;
74974;SDS011;64061;50.836;19.138;2022-10-10T00:10:52;3.78;;;0.40;;
74974;SDS011;64061;50.836;19.138;2022-10-10T00:13:55;1.83;;;1.02;;
74974;SDS011;64061;50.836;19.138;2022-10-10T00:16:58;1.77;;;0.85;;
74974;SDS011;64061;50.836;19.138;2022-10-10T00:20:03;2.30;;;0.77;;
74974;SDS011;64061;50.836;19.138;2022-10-10T00:23:08;0.98;;;0.60;;
74974;SDS011;64061;50.836;19.138;2022-10-10T00:26:11;1.42;;;0.68;;
74974;SDS011;64061;50.836;19.138;2022-10-10T00:29:20;1.80;;;1.08;;
74974;SDS011;64061;50.836;19.138;2022-10-10T00:32:23;1.67;;;0.80;;
74974;SDS011;64061;50.836;19.138;2022-10-10T00:35:28;1.47;;;1.00;;
74974;SDS011;64061;50.836;19.138;2022-10-10T00:38:32;3.63;;;1.20;;
74974;SDS011;64061;50.836;19.138;2022-10-10T00:41:36;1.50;;;0.80;;
74974;SDS011;64061;50.836;19.138;2022-10-10T00:44:39;2.10;;;0.82;;
74974;SDS011;64061;50.836;19.138;2022-10-10T00:47:43;0.98;;;0.75;;
74974;SDS011;64061;50.836;19.138;2022-10-10T00:50:49;1.37;;;0.53;;
74974;SDS011;64061;50.836;19.138;2022-10-10T00:53:59;1.77;;;0.77;;
74974;SDS011;64061;50.836;19.138;2022-10-10T00:57:08;1.05;;;0.82;;
74974;SDS011;64061;50.836;19.138;2022-10-10T01:00:16;3.17;;;0.95;;
74974;SDS011;64061;50.836;19.138;2022-10-10T01:03:19;1.20;;;0.60;;
74974;SDS011;64061;50.836;19.138;2022-10-10T01:06:24;1.63;;;0.63;;
74974;SDS011;64061;50.836;19.138;2022-10-10T01:09:28;0.77;;;0.43;;
74974;SDS011;64061;50.836;19.138;2022-10-10T01:12:37;1.60;;;1.08;;
74974;SDS011;64061;50.836;19.138;2022-10-10T01:15:56;4.15;;;0.60;;
74974;SDS011;64061;50.836;19.138;2022-10-10T01:19:12;2.75;;;0.90;;
74974;SDS011;64061;50.836;19.138;2022-10-10T01:27:20;1.60;;;0.77;;
74974;SDS011;64061;50.836;19.138;2022-10-10T01:30:33;2.42;;;0.98;;
74974;SDS011;64061;50.836;19.138;2022-10-10T01:33:42;1.60;;;0.95;;
74974;SDS011;64061;50.836;19.138;2022-10-10T01:36:57;1.75;;;0.65;;
74974;SDS011;64061;50.836;19.138;2022-10-10T01:40:11;2.10;;;1.03;;
74974;SDS011;64061;50.836;19.138;2022-10-10T01:43:25;1.42;;;0.65;;
74974;SDS011;64061;50.836;19.138;2022-10-10T01:46:31;1.58;;;0.80;;
74974;SDS011;64061;50.836;19.138;2022-10-10T01:49:34;2.00;;;1.23;;
74974;SDS011;64061;50.836;19.138;2022-10-10T01:52:42;1.13;;;0.73;;
74974;SDS011;64061;50.836;19.138;2022-10-10T01:56:01;1.57;;;0.97;;
74974;SDS011;64061;50.836;19.138;2022-10-10T01:59:17;2.00;;;0.80;;
74974;SDS011;64061;50.836;19.138;2022-10-10T02:02:44;1.10;;;0.52;;
74974;SDS011;64061;50.836;19.138;2022-10-10T02:05:56;4.80;;;0.98;;
74974;SDS011;64061;50.836;19.138;2022-10-10T02:09:08;2.10;;;0.82;;
74974;SDS011;64061;50.836;19.138;2022-10-10T02:12:20;1.30;;;0.70;;
74974;SDS011;64061;50.836;19.138;2022-10-10T02:15:26;1.13;;;0.55;;
74974;SDS011;64061;50.836;19.138;2022-10-10T02:18:39;2.92;;;1.52;;
74974;SDS011;64061;50.836;19.138;2022-10-10T02:21:46;1.13;;;0.63;;
74974;SDS011;64061;50.836;19.138;2022-10-10T02:24:54;1.65;;;0.75;;
74974;SDS011;64061;50.836;19.138;2022-10-10T02:28:02;0.93;;;0.70;;
74974;SDS011;64061;50.836;19.138;2022-10-10T02:31:18;0.75;;;0.50;;
74974;SDS011;64061;50.836;19.138;2022-10-10T02:34:32;0.73;;;0.43;;
74974;SDS011;64061;50.836;19.138;2022-10-10T02:37:41;1.17;;;0.60;;
74974;SDS011;64061;50.836;19.138;2022-10-10T02:40:46;1.65;;;1.00;;
74974;SDS011;64061;50.836;19.138;2022-10-10T02:43:52;0.90;;;0.53;;
74974;SDS011;64061;50.836;19.138;2022-10-10T02:46:56;0.57;;;0.38;;
74974;SDS011;64061;50.836;19.138;2022-10-10T02:50:02;1.40;;;0.85;;
74974;SDS011;64061;50.836;19.138;2022-10-10T02:53:05;0.75;;;0.28;;
74974;SDS011;64061;50.836;19.138;2022-10-10T02:56:09;1.92;;;0.85;;
74974;SDS011;64061;50.836;19.138;2022-10-10T02:59:12;0.93;;;0.30;;
74974;SDS011;64061;50.836;19.138;2022-10-10T03:02:16;1.35;;;0.88;;
74974;SDS011;64061;50.836;19.138;2022-10-10T03:05:20;1.58;;;0.90;;
74974;SDS011;64061;50.836;19.138;2022-10-10T03:08:24;1.27;;;0.40;;
74974;SDS011;64061;50.836;19.138;2022-10-10T03:11:27;1.67;;;0.87;;
74974;SDS011;64061;50.836;19.138;2022-10-10T03:14:30;2.90;;;0.82;;
74974;SDS011;64061;50.836;19.138;2022-10-10T03:17:34;1.15;;;0.77;;
74974;SDS011;64061;50.836;19.138;2022-10-10T03:20:39;0.60;;;0.40;;
74974;SDS011;64061;50.836;19.138;2022-10-10T03:23:42;1.50;;;1.13;;
74974;SDS011;64061;50.836;19.138;2022-10-10T03:26:45;0.80;;;0.57;;
74974;SDS011;64061;50.836;19.138;2022-10-10T03:29:49;0.65;;;0.28;;
74974;SDS011;64061;50.836;19.138;2022-10-10T03:32:52;0.70;;;0.40;;
74974;SDS011;64061;50.836;19.138;2022-10-10T03:35:57;0.68;;;0.40;;
74974;SDS011;64061;50.836;19.138;2022-10-10T03:39:00;1.60;;;0.52;;
74974;SDS011;64061;50.836;19.138;2022-10-10T03:42:05;1.20;;;0.73;;
74974;SDS011;64061;50.836;19.138;2022-10-10T03:45:08;1.10;;;0.50;;
74974;SDS011;64061;50.836;19.138;2022-10-10T03:48:13;1.42;;;0.82;;
74974;SDS011;64061;50.836;19.138;2022-10-10T03:51:18;1.35;;;0.73;;
74974;SDS011;64061;50.836;19.138;2022-10-10T03:54:21;1.63;;;0.93;;
74974;SDS011;64061;50.836;19.138;2022-10-10T03:57:25;1.05;;;0.73;;
74974;SDS011;64061;50.836;19.138;2022-10-10T04:00:29;1.27;;;0.63;;
74974;SDS011;64061;50.836;19.138;2022-10-10T04:03:33;1.25;;;0.28;;
74974;SDS011;64061;50.836;19.138;2022-10-10T04:06:37;1.00;;;0.70;;
74974;SDS011;64061;50.836;19.138;2022-10-10T04:09:41;1.00;;;0.43;;
74974;SDS011;64061;50.836;19.138;2022-10-10T04:12:44;1.17;;;0.73;;
74974;SDS011;64061;50.836;19.138;2022-10-10T04:15:48;1.20;;;0.73;;
74974;SDS011;64061;50.836;19.138;2022-10-10T04:18:52;1.45;;;1.25;;
74974;SDS011;64061;50.836;19.138;2022-10-10T04:21:57;1.52;;;0.45;;
74974;SDS011;64061;50.836;19.138;2022-10-10T04:25:00;1.60;;;0.57;;
74974;SDS011;64061;50.836;19.138;2022-10-10T04:28:04;0.70;;;0.40;;
74974;SDS011;64061;50.836;19.138;2022-10-10T04:31:07;1.35;;;0.40;;
74974;SDS011;64061;50.836;19.138;2022-10-10T04:34:10;1.73;;;0.65;;
74974;SDS011;64061;50.836;19.138;2022-10-10T04:37:15;1.17;;;0.80;;
74974;SDS011;64061;50.836;19.138;2022-10-10T04:40:18;1.25;;;0.85;;
74974;SDS011;64061;50.836;19.138;2022-10-10T04:43:27;1.00;;;0.40;;
74974;SDS011;64061;50.836;19.138;2022-10-10T04:46:31;1.08;;;0.77;;
74974;SDS011;64061;50.836;19.138;2022-10-10T04:49:34;1.13;;;0.68;;
74974;SDS011;64061;50.836;19.138;2022-10-10T04:52:39;2.57;;;0.83;;
74974;SDS011;64061;50.836;19.138;2022-10-10T04:55:42;0.88;;;0.55;;
74974;SDS011;64061;50.836;19.138;2022-10-10T04:58:45;1.65;;;0.63;;
74974;SDS011;64061;50.836;19.138;2022-10-10T05:01:48;0.98;;;0.40;;
74974;SDS011;64061;50.836;19.138;2022-10-10T05:04:52;0.85;;;0.55;;
74974;SDS011;64061;50.836;19.138;2022-10-10T05:07:56;1.30;;;0.77;;
74974;SDS011;64061;50.836;19.138;2022-10-10T05:11:00;0.85;;;0.55;;
74974;SDS011;64061;50.836;19.138;2022-10-10T05:14:03;0.82;;;0.40;;
74974;SDS011;64061;50.836;19.138;2022-10-10T05:17:07;2.35;;;0.65;;
74974;SDS011;64061;50.836;19.138;2022-10-10T05:20:11;1.10;;;0.47;;
74974;SDS011;64061;50.836;19.138;2022-10-10T05:23:17;0.80;;;0.53;;
74974;SDS011;64061;50.836;19.138;2022-10-10T05:26:20;1.05;;;0.70;;
74974;SDS011;64061;50.836;19.138;2022-10-10T05:29:23;1.08;;;0.82;;
74974;SDS011;64061;50.836;19.138;2022-10-10T05:32:27;0.68;;;0.25;;
74974;SDS011;64061;50.836;19.138;2022-10-10T05:35:31;1.25;;;0.57;;
74974;SDS011;64061;50.836;19.138;2022-10-10T05:38:35;1.37;;;0.50;;
74974;SDS011;64061;50.836;19.138;2022-10-10T05:41:39;0.75;;;0.45;;
74974;SDS011;64061;50.836;19.138;2022-10-10T05:44:43;0.60;;;0.22;;
74974;SDS011;64061;50.836;19.138;2022-10-10T05:47:46;1.30;;;0.40;;
74974;SDS011;64061;50.836;19.138;2022-10-10T05:50:50;0.80;;;0.38;;
74974;SDS011;64061;50.836;19.138;2022-10-10T05:53:58;1.77;;;0.63;;
74974;SDS011;64061;50.836;19.138;2022-10-10T05:57:01;0.73;;;0.35;;
74974;SDS011;64061;50.836;19.138;2022-10-10T06:00:05;0.82;;;0.40;;
74974;SDS011;64061;50.836;19.138;2022-10-10T06:03:09;1.10;;;0.38;;
74974;SDS011;64061;50.836;19.138;2022-10-10T06:06:15;0.60;;;0.30;;
74974;SDS011;64061;50.836;19.138;2022-10-10T06:09:19;0.60;;;0.20;;
74974;SDS011;64061;50.836;19.138;2022-10-10T06:12:23;1.35;;;0.70;;
74974;SDS011;64061;50.836;19.138;2022-10-10T06:15:26;1.25;;;0.77;;
74974;SDS011;64061;50.836;19.138;2022-10-10T06:18:29;0.60;;;0.30;;
74974;SDS011;64061;50.836;19.138;2022-10-10T06:21:32;1.27;;;0.50;;
74974;SDS011;64061;50.836;19.138;2022-10-10T06:24:37;1.07;;;0.60;;
74974;SDS011;64061;50.836;19.138;2022-10-10T06:27:40;4.60;;;1.60;;
74974;SDS011;64061;50.836;19.138;2022-10-10T06:30:44;3.30;;;1.30;;
74974;SDS011;64061;50.836;19.138;2022-10-10T06:33:49;3.65;;;2.05;;
74974;SDS011;64061;50.836;19.138;2022-10-10T06:36:53;4.50;;;2.05;;
74974;SDS011;64061;50.836;19.138;2022-10-10T06:39:58;4.67;;;2.43;;
74974;SDS011;64061;50.836;19.138;2022-10-10T06:43:01;5.75;;;2.65;;
74974;SDS011;64061;50.836;19.138;2022-10-10T06:46:07;5.22;;;2.38;;
74974;SDS011;64061;50.836;19.138;2022-10-10T06:49:12;5.10;;;2.50;;
74974;SDS011;64061;50.836;19.138;2022-10-10T06:52:15;5.18;;;2.33;;
74974;SDS011;64061;50.836;19.138;2022-10-10T06:55:20;5.13;;;2.50;;
74974;SDS011;64061;50.836;19.138;2022-10-10T06:58:24;5.10;;;2.20;;
74974;SDS011;64061;50.836;19.138;2022-10-10T07:01:30;4.13;;;2.10;;
74974;SDS011;64061;50.836;19.138;2022-10-10T07:04:33;6.35;;;2.17;;
74974;SDS011;64061;50.836;19.138;2022-10-10T07:07:36;5.00;;;2.10;;
74974;SDS011;64061;50.836;19.138;2022-10-10T07:10:41;8.13;;;2.07;;
74974;SDS011;64061;50.836;19.138;2022-10-10T07:13:44;3.35;;;1.83;;
74974;SDS011;64061;50.836;19.138;2022-10-10T07:16:47;5.10;;;2.33;;
74974;SDS011;64061;50.836;19.138;2022-10-10T07:19:51;8.07;;;2.08;;
74974;SDS011;64061;50.836;19.138;2022-10-10T07:22:54;8.15;;;2.30;;
74974;SDS011;64061;50.836;19.138;2022-10-10T07:25:59;5.13;;;2.37;;
74974;SDS011;64061;50.836;19.138;2022-10-10T07:29:04;8.27;;;2.60;;
74974;SDS011;64061;50.836;19.138;2022-10-10T07:32:08;8.23;;;2.58;;
74974;SDS011;64061;50.836;19.138;2022-10-10T07:35:11;6.95;;;2.28;;
74974;SDS011;64061;50.836;19.138;2022-10-10T07:38:14;7.70;;;2.60;;
74974;SDS011;64061;50.836;19.138;2022-10-10T07:41:19;8.03;;;2.23;;
74974;SDS011;64061;50.836;19.138;2022-10-10T07:44:24;8.40;;;2.28;;
74974;SDS011;64061;50.836;19.138;2022-10-10T07:47:34;6.10;;;2.15;;
74974;SDS011;64061;50.836;19.138;2022-10-10T07:50:38;6.85;;;2.85;;
74974;SDS011;64061;50.836;19.138;2022-10-10T07:53:43;7.70;;;2.83;;
74974;SDS011;64061;50.836;19.138;2022-10-10T07:56:47;5.70;;;2.30;;
74974;SDS011;64061;50.836;19.138;2022-10-10T07:59:51;6.18;;;2.10;;
74974;SDS011;64061;50.836;19.138;2022-10-10T08:02:54;6.70;;;2.28;;
74974;SDS011;64061;50.836;19.138;2022-10-10T08:05:57;5.65;;;2.10;;
74974;SDS011;64061;50.836;19.138;2022-10-10T08:09:04;3.53;;;1.73;;
74974;SDS011;64061;50.836;19.138;2022-10-10T08:12:08;4.60;;;2.20;;
74974;SDS011;64061;50.836;19.138;2022-10-10T08:15:12;3.85;;;1.38;;
74974;SDS011;64061;50.836;19.138;2022-10-10T08:18:15;4.47;;;2.22;;
74974;SDS011;64061;50.836;19.138;2022-10-10T08:21:18;7.15;;;1.60;;
74974;SDS011;64061;50.836;19.138;2022-10-10T08:24:21;5.82;;;1.80;;
74974;SDS011;64061;50.836;19.138;2022-10-10T08:27:26;7.73;;;1.60;;
74974;SDS011;64061;50.836;19.138;2022-10-10T08:30:29;5.80;;;1.27;;
74974;SDS011;64061;50.836;19.138;2022-10-10T08:33:33;4.63;;;1.38;;
74974;SDS011;64061;50.836;19.138;2022-10-10T08:36:37;4.47;;;1.58;;
74974;SDS011;64061;50.836;19.138;2022-10-10T08:39:43;3.83;;;1.20;;
74974;SDS011;64061;50.836;19.138;2022-10-10T08:42:48;3.37;;;1.50;;
74974;SDS011;64061;50.836;19.138;2022-10-10T08:45:57;3.92;;;1.52;;
74974;SDS011;64061;50.836;19.138;2022-10-10T08:49:18;3.95;;;1.50;;
74974;SDS011;64061;50.836;19.138;2022-10-10T08:52:31;4.45;;;1.83;;
74974;SDS011;64061;50.836;19.138;2022-10-10T08:55:40;3.33;;;1.38;;
74974;SDS011;64061;50.836;19.138;2022-10-10T08:58:48;2.50;;;1.27;;
74974;SDS011;64061;50.836;19.138;2022-10-10T09:05:54;4.88;;;1.50;;
74974;SDS011;64061;50.836;19.138;2022-10-10T09:09:20;4.40;;;1.42;;
74974;SDS011;64061;50.836;19.138;2022-10-10T09:12:38;5.90;;;1.63;;
74974;SDS011;64061;50.836;19.138;2022-10-10T09:15:58;6.30;;;2.60;;
74974;SDS011;64061;50.836;19.138;2022-10-10T09:19:05;6.88;;;1.77;;
74974;SDS011;64061;50.836;19.138;2022-10-10T09:22:27;3.92;;;2.03;;
74974;SDS011;64061;50.836;19.138;2022-10-10T09:25:38;5.90;;;2.05;;
74974;SDS011;64061;50.836;19.138;2022-10-10T09:28:49;4.22;;;2.08;;
74974;SDS011;64061;50.836;19.138;2022-10-10T09:32:07;4.63;;;2.00;;
74974;SDS011;64061;50.836;19.138;2022-10-10T09:35:18;4.00;;;1.83;;
74974;SDS011;64061;50.836;19.138;2022-10-10T09:38:34;5.50;;;2.20;;
74974;SDS011;64061;50.836;19.138;2022-10-10T09:41:44;5.20;;;2.08;;
74974;SDS011;64061;50.836;19.138;2022-10-10T09:44:55;8.75;;;2.63;;
74974;SDS011;64061;50.836;19.138;2022-10-10T09:48:01;9.37;;;2.80;;
74974;SDS011;64061;50.836;19.138;2022-10-10T09:51:05;8.38;;;2.53;;
74974;SDS011;64061;50.836;19.138;2022-10-10T09:54:14;7.78;;;2.50;;
74974;SDS011;64061;50.836;19.138;2022-10-10T09:57:21;6.78;;;2.40;;
74974;SDS011;64061;50.836;19.138;2022-10-10T10:00:33;7.97;;;2.20;;
74974;SDS011;64061;50.836;19.138;2022-10-10T10:03:40;4.20;;;1.67;;
74974;SDS011;64061;50.836;19.138;2022-10-10T10:06:45;6.18;;;1.70;;
74974;SDS011;64061;50.836;19.138;2022-10-10T10:09:53;5.35;;;2.17;;
74974;SDS011;64061;50.836;19.138;2022-10-10T10:12:58;4.03;;;2.13;;
74974;SDS011;64061;50.836;19.138;2022-10-10T10:16:04;4.53;;;1.70;;
74974;SDS011;64061;50.836;19.138;2022-10-10T10:22:34;4.65;;;1.80;;
74974;SDS011;64061;50.836;19.138;2022-10-10T10:25:40;5.57;;;2.00;;
74974;SDS011;64061;50.836;19.138;2022-10-10T10:28:43;5.40;;;1.83;;
74974;SDS011;64061;50.836;19.138;2022-10-10T10:31:52;6.05;;;2.35;;
74974;SDS011;64061;50.836;19.138;2022-10-10T10:35:10;4.97;;;1.80;;
74974;SDS011;64061;50.836;19.138;2022-10-10T10:38:27;3.97;;;1.70;;
74974;SDS011;64061;50.836;19.138;2022-10-10T10:41:45;3.65;;;1.60;;
74974;SDS011;64061;50.836;19.138;2022-10-10T10:45:02;5.20;;;1.42;;
74974;SDS011;64061;50.836;19.138;2022-10-10T10:48:20;3.05;;;1.38;;
74974;SDS011;64061;50.836;19.138;2022-10-10T10:51:45;4.80;;;1.20;;
74974;SDS011;64061;50.836;19.138;2022-10-10T10:55:16;3.72;;;1.30;;
74974;SDS011;64061;50.836;19.138;2022-10-10T10:58:35;3.50;;;1.40;;
74974;SDS011;64061;50.836;19.138;2022-10-10T11:02:19;3.22;;;1.30;;
74974;SDS011;64061;50.836;19.138;2022-10-10T11:05:59;3.75;;;1.20;;
74974;SDS011;64061;50.836;19.138;2022-10-10T11:09:22;2.63;;;1.23;;
74974;SDS011;64061;50.836;19.138;2022-10-10T11:12:52;6.00;;;1.20;;
74974;SDS011;64061;50.836;19.138;2022-10-10T11:16:10;2.58;;;1.08;;
74974;SDS011;64061;50.836;19.138;2022-10-10T11:19:43;4.57;;;1.23;;
74974;SDS011;64061;50.836;19.138;2022-10-10T11:22:59;3.80;;;1.20;;
74974;SDS011;64061;50.836;19.138;2022-10-10T11:26:14;3.50;;;1.40;;
74974;SDS011;64061;50.836;19.138;2022-10-10T11:29:26;3.75;;;1.33;;
74974;SDS011;64061;50.836;19.138;2022-10-10T11:32:37;6.70;;;1.30;;
74974;SDS011;64061;50.836;19.138;2022-10-10T11:35:52;5.60;;;1.48;;
74974;SDS011;64061;50.836;19.138;2022-10-10T11:39:02;3.50;;;1.50;;
74974;SDS011;64061;50.836;19.138;2022-10-10T11:42:18;3.67;;;1.23;;
74974;SDS011;64061;50.836;19.138;2022-10-10T11:45:29;6.40;;;1.30;;
74974;SDS011;64061;50.836;19.138;2022-10-10T11:48:42;3.42;;;1.13;;
74974;SDS011;64061;50.836;19.138;2022-10-10T11:55:40;4.78;;;1.40;;
74974;SDS011;64061;50.836;19.138;2022-10-10T11:58:53;5.30;;;1.70;;
74974;SDS011;64061;50.836;19.138;2022-10-10T12:02:03;4.82;;;1.23;;
74974;SDS011;64061;50.836;19.138;2022-10-10T12:05:22;7.75;;;1.50;;
74974;SDS011;64061;50.836;19.138;2022-10-10T12:08:30;4.93;;;1.40;;
74974;SDS011;64061;50.836;19.138;2022-10-10T12:11:39;6.57;;;1.63;;
74974;SDS011;64061;50.836;19.138;2022-10-10T12:14:50;6.00;;;1.67;;
74974;SDS011;64061;50.836;19.138;2022-10-10T12:17:57;4.35;;;1.50;;
74974;SDS011;64061;50.836;19.138;2022-10-10T12:21:02;4.80;;;1.45;;
74974;SDS011;64061;50.836;19.138;2022-10-10T12:24:10;10.05;;;1.60;;
74974;SDS011;64061;50.836;19.138;2022-10-10T12:27:26;7.13;;;1.40;;
74974;SDS011;64061;50.836;19.138;2022-10-10T12:34:40;3.78;;;1.33;;
74974;SDS011;64061;50.836;19.138;2022-10-10T12:38:08;3.75;;;1.50;;
74974;SDS011;64061;50.836;19.138;2022-10-10T12:41:26;5.35;;;1.40;;
74974;SDS011;64061;50.836;19.138;2022-10-10T12:44:58;3.35;;;1.33;;
74974;SDS011;64061;50.836;19.138;2022-10-10T12:48:03;3.00;;;1.30;;
74974;SDS011;64061;50.836;19.138;2022-10-10T12:51:37;3.50;;;1.60;;
74974;SDS011;64061;50.836;19.138;2022-10-10T12:54:42;3.00;;;1.35;;
74974;SDS011;64061;50.836;19.138;2022-10-10T12:57:49;4.22;;;1.23;;
74974;SDS011;64061;50.836;19.138;2022-10-10T13:00:58;5.53;;;1.30;;
74974;SDS011;64061;50.836;19.138;2022-10-10T13:04:09;5.17;;;1.33;;
74974;SDS011;64061;50.836;19.138;2022-10-10T13:07:20;2.92;;;1.38;;
74974;SDS011;64061;50.836;19.138;2022-10-10T13:10:25;5.40;;;1.50;;
74974;SDS011;64061;50.836;19.138;2022-10-10T13:13:33;3.65;;;1.40;;
74974;SDS011;64061;50.836;19.138;2022-10-10T13:16:41;5.53;;;1.45;;
74974;SDS011;64061;50.836;19.138;2022-10-10T13:19:47;6.13;;;1.30;;
74974;SDS011;64061;50.836;19.138;2022-10-10T13:22:50;3.85;;;1.50;;
74974;SDS011;64061;50.836;19.138;2022-10-10T13:25:55;6.07;;;1.42;;
74974;SDS011;64061;50.836;19.138;2022-10-10T13:29:04;4.13;;;1.50;;
74974;SDS011;64061;50.836;19.138;2022-10-10T13:32:24;3.85;;;1.80;;
74974;SDS011;64061;50.836;19.138;2022-10-10T13:35:30;4.90;;;1.40;;
74974;SDS011;64061;50.836;19.138;2022-10-10T13:38:34;4.20;;;1.63;;
74974;SDS011;64061;50.836;19.138;2022-10-10T13:41:37;7.93;;;1.63;;
74974;SDS011;64061;50.836;19.138;2022-10-10T13:44:47;4.28;;;1.35;;
74974;SDS011;64061;50.836;19.138;2022-10-10T13:47:54;3.72;;;1.60;;
74974;SDS011;64061;50.836;19.138;2022-10-10T13:51:14;4.10;;;1.10;;
74974;SDS011;64061;50.836;19.138;2022-10-10T13:54:37;3.60;;;1.50;;
74974;SDS011;64061;50.836;19.138;2022-10-10T13:57:45;4.18;;;1.50;;
74974;SDS011;64061;50.836;19.138;2022-10-10T14:00:54;4.50;;;1.70;;
74974;SDS011;64061;50.836;19.138;2022-10-10T14:04:13;6.43;;;1.50;;
74974;SDS011;64061;50.836;19.138;2022-10-10T14:07:25;4.07;;;1.70;;
74974;SDS011;64061;50.836;19.138;2022-10-10T14:10:31;3.63;;;1.60;;
74974;SDS011;64061;50.836;19.138;2022-10-10T14:13:37;3.15;;;1.40;;
74974;SDS011;64061;50.836;19.138;2022-10-10T14:16:42;3.47;;;1.40;;
74974;SDS011;64061;50.836;19.138;2022-10-10T14:19:46;3.67;;;1.33;;
74974;SDS011;64061;50.836;19.138;2022-10-10T14:22:50;2.63;;;1.30;;
74974;SDS011;64061;50.836;19.138;2022-10-10T14:25:54;3.47;;;1.58;;
74974;SDS011;64061;50.836;19.138;2022-10-10T14:28:59;2.47;;;1.30;;
74974;SDS011;64061;50.836;19.138;2022-10-10T14:32:04;3.08;;;1.60;;
74974;SDS011;64061;50.836;19.138;2022-10-10T14:35:08;3.35;;;1.63;;
74974;SDS011;64061;50.836;19.138;2022-10-10T14:38:14;5.37;;;1.90;;
74974;SDS011;64061;50.836;19.138;2022-10-10T14:41:18;2.55;;;1.45;;
74974;SDS011;64061;50.836;19.138;2022-10-10T14:44:21;3.67;;;1.40;;
74974;SDS011;64061;50.836;19.138;2022-10-10T14:47:26;2.40;;;1.40;;
74974;SDS011;64061;50.836;19.138;2022-10-10T14:50:31;2.88;;;1.60;;
74974;SDS011;64061;50.836;19.138;2022-10-10T14:53:38;2.87;;;1.63;;
74974;SDS011;64061;50.836;19.138;2022-10-10T14:56:42;3.47;;;1.40;;
74974;SDS011;64061;50.836;19.138;2022-10-10T15:00:09;3.28;;;1.70;;
74974;SDS011;64061;50.836;19.138;2022-10-10T15:03:19;2.60;;;1.48;;
74974;SDS011;64061;50.836;19.138;2022-10-10T15:06:23;3.50;;;1.60;;
74974;SDS011;64061;50.836;19.138;2022-10-10T15:09:26;3.20;;;1.60;;
74974;SDS011;64061;50.836;19.138;2022-10-10T15:12:45;3.95;;;1.48;;
74974;SDS011;64061;50.836;19.138;2022-10-10T15:15:48;3.22;;;1.65;;
74974;SDS011;64061;50.836;19.138;2022-10-10T15:18:53;3.97;;;1.70;;
74974;SDS011;64061;50.836;19.138;2022-10-10T15:21:56;2.60;;;1.30;;
74974;SDS011;64061;50.836;19.138;2022-10-10T15:24:59;3.57;;;1.50;;
74974;SDS011;64061;50.836;19.138;2022-10-10T15:28:03;3.35;;;1.52;;
74974;SDS011;64061;50.836;19.138;2022-10-10T15:31:07;4.13;;;1.45;;
74974;SDS011;64061;50.836;19.138;2022-10-10T15:34:11;3.35;;;1.58;;
74974;SDS011;64061;50.836;19.138;2022-10-10T15:37:15;3.05;;;1.67;;
74974;SDS011;64061;50.836;19.138;2022-10-10T15:40:20;5.10;;;1.30;;
74974;SDS011;64061;50.836;19.138;2022-10-10T15:43:26;2.83;;;1.38;;
74974;SDS011;64061;50.836;19.138;2022-10-10T15:46:30;4.32;;;1.50;;
74974;SDS011;64061;50.836;19.138;2022-10-10T15:49:35;8.98;;;2.30;;
74974;SDS011;64061;50.836;19.138;2022-10-10T15:52:40;4.57;;;1.90;;
74974;SDS011;64061;50.836;19.138;2022-10-10T15:55:44;4.97;;;1.80;;
74974;SDS011;64061;50.836;19.138;2022-10-10T15:58:53;6.35;;;1.98;;
74974;SDS011;64061;50.836;19.138;2022-10-10T16:01:59;5.28;;;2.08;;
74974;SDS011;64061;50.836;19.138;2022-10-10T16:05:04;5.35;;;2.10;;
74974;SDS011;64061;50.836;19.138;2022-10-10T16:08:09;6.22;;;2.05;;
74974;SDS011;64061;50.836;19.138;2022-10-10T16:11:14;13.87;;;3.33;;
74974;SDS011;64061;50.836;19.138;2022-10-10T16:14:19;7.50;;;2.33;;
74974;SDS011;64061;50.836;19.138;2022-10-10T16:17:22;8.35;;;2.28;;
74974;SDS011;64061;50.836;19.138;2022-10-10T16:20:27;5.60;;;1.80;;
74974;SDS011;64061;50.836;19.138;2022-10-10T16:23:30;5.20;;;2.20;;
74974;SDS011;64061;50.836;19.138;2022-10-10T16:26:34;5.67;;;2.43;;
74974;SDS011;64061;50.836;19.138;2022-10-10T16:29:39;4.65;;;2.00;;
74974;SDS011;64061;50.836;19.138;2022-10-10T16:32:42;8.20;;;2.17;;
74974;SDS011;64061;50.836;19.138;2022-10-10T16:35:47;6.43;;;2.05;;
74974;SDS011;64061;50.836;19.138;2022-10-10T16:38:51;7.68;;;2.30;;
74974;SDS011;64061;50.836;19.138;2022-10-10T16:41:58;6.53;;;2.00;;
74974;SDS011;64061;50.836;19.138;2022-10-10T16:45:02;4.10;;;2.00;;
74974;SDS011;64061;50.836;19.138;2022-10-10T16:48:09;7.22;;;2.25;;
74974;SDS011;64061;50.836;19.138;2022-10-10T16:51:19;4.60;;;2.08;;
74974;SDS011;64061;50.836;19.138;2022-10-10T16:54:24;5.57;;;2.20;;
74974;SDS011;64061;50.836;19.138;2022-10-10T16:57:29;8.90;;;2.33;;
74974;SDS011;64061;50.836;19.138;2022-10-10T17:00:32;7.07;;;2.20;;
74974;SDS011;64061;50.836;19.138;2022-10-10T17:03:36;15.32;;;2.53;;
74974;SDS011;64061;50.836;19.138;2022-10-10T17:06:41;9.18;;;2.50;;
74974;SDS011;64061;50.836;19.138;2022-10-10T17:09:45;5.85;;;2.45;;
74974;SDS011;64061;50.836;19.138;2022-10-10T17:12:48;8.00;;;2.70;;
74974;SDS011;64061;50.836;19.138;2022-10-10T17:15:52;7.65;;;2.85;;
74974;SDS011;64061;50.836;19.138;2022-10-10T17:18:59;10.57;;;3.00;;
74974;SDS011;64061;50.836;19.138;2022-10-10T17:22:05;7.75;;;2.83;;
74974;SDS011;64061;50.836;19.138;2022-10-10T17:25:08;7.68;;;3.10;;
74974;SDS011;64061;50.836;19.138;2022-10-10T17:28:12;9.53;;;2.90;;
74974;SDS011;64061;50.836;19.138;2022-10-10T17:31:16;6.85;;;3.17;;
74974;SDS011;64061;50.836;19.138;2022-10-10T17:34:20;8.10;;;3.28;;
74974;SDS011;64061;50.836;19.138;2022-10-10T17:37:24;7.63;;;3.53;;
74974;SDS011;64061;50.836;19.138;2022-10-10T17:40:28;7.07;;;2.72;;
74974;SDS011;64061;50.836;19.138;2022-10-10T17:43:31;8.20;;;3.10;;
74974;SDS011;64061;50.836;19.138;2022-10-10T17:46:35;7.45;;;3.17;;
74974;SDS011;64061;50.836;19.138;2022-10-10T17:49:40;10.23;;;3.42;;
74974;SDS011;64061;50.836;19.138;2022-10-10T17:52:48;7.70;;;3.13;;
74974;SDS011;64061;50.836;19.138;2022-10-10T17:55:52;6.22;;;2.83;;
74974;SDS011;64061;50.836;19.138;2022-10-10T17:58:56;7.47;;;3.17;;
74974;SDS011;64061;50.836;19.138;2022-10-10T18:02:02;7.38;;;3.20;;
74974;SDS011;64061;50.836;19.138;2022-10-10T18:05:06;7.20;;;3.63;;
74974;SDS011;64061;50.836;19.138;2022-10-10T18:08:11;8.32;;;3.72;;
74974;SDS011;64061;50.836;19.138;2022-10-10T18:11:17;6.65;;;3.30;;
74974;SDS011;64061;50.836;19.138;2022-10-10T18:14:23;7.83;;;3.53;;
74974;SDS011;64061;50.836;19.138;2022-10-10T18:17:27;7.03;;;3.60;;
74974;SDS011;64061;50.836;19.138;2022-10-10T18:20:30;7.72;;;3.80;;
74974;SDS011;64061;50.836;19.138;2022-10-10T18:23:37;7.00;;;3.20;;
74974;SDS011;64061;50.836;19.138;2022-10-10T18:26:43;7.28;;;3.65;;
74974;SDS011;64061;50.836;19.138;2022-10-10T18:29:47;9.80;;;4.13;;
74974;SDS011;64061;50.836;19.138;2022-10-10T18:32:50;10.18;;;4.40;;
74974;SDS011;64061;50.836;19.138;2022-10-10T18:35:54;7.47;;;4.20;;
74974;SDS011;64061;50.836;19.138;2022-10-10T18:39:02;8.90;;;3.97;;
74974;SDS011;64061;50.836;19.138;2022-10-10T18:42:13;7.68;;;4.38;;
74974;SDS011;64061;50.836;19.138;2022-10-10T18:45:16;7.33;;;4.20;;
74974;SDS011;64061;50.836;19.138;2022-10-10T18:48:19;9.77;;;4.88;;
74974;SDS011;64061;50.836;19.138;2022-10-10T18:51:24;7.07;;;3.80;;